sensor_id;sensor_type;location;lat;lon;timestamp;P1;durP1;ratioP1;P2;durP2;ratioP2
8435;SDS011;4255;48.730;9.156;2023-05-02T00:02:15;15.97;;;11.30;;
8435;SDS011;4255;48.730;9.156;2023-05-02T00:04:41;15.30;;;10.73;;
8435;SDS011;4255;48.730;9.156;2023-05-02T00:07:06;15.37;;;12.10;;
8435;SDS011;4255;48.730;9.156;2023-05-02T00:09:32;12.97;;;11.20;;
8435;SDS011;4255;48.730;9.156;2023-05-02T00:11:58;15.80;;;12.70;;
8435;SDS011;4255;48.730;9.156;2023-05-02T00:14:24;14.00;;;12.50;;
8435;SDS011;4255;48.730;9.156;2023-05-02T00:16:49;17.70;;;13.43;;
8435;SDS011;4255;48.730;9.156;2023-05-02T00:19:15;16.50;;;12.50;;
8435;SDS011;4255;48.730;9.156;2023-05-02T00:21:41;15.37;;;12.17;;
8435;SDS011;4255;48.730;9.156;2023-05-02T00:24:06;17.00;;;12.70;;
8435;SDS011;4255;48.730;9.156;2023-05-02T00:26:32;16.30;;;12.30;;
8435;SDS011;4255;48.730;9.156;2023-05-02T00:28:57;16.73;;;13.70;;
8435;SDS011;4255;48.730;9.156;2023-05-02T00:31:23;13.80;;;12.40;;
8435;SDS011;4255;48.730;9.156;2023-05-02T00:33:49;19.20;;;12.33;;
8435;SDS011;4255;48.730;9.156;2023-05-02T00:36:15;15.50;;;12.47;;
8435;SDS011;4255;48.730;9.156;2023-05-02T00:38:42;17.25;;;14.60;;
8435;SDS011;4255;48.730;9.156;2023-05-02T00:41:07;11.90;;;10.70;;
8435;SDS011;4255;48.730;9.156;2023-05-02T00:43:33;15.17;;;12.07;;
8435;SDS011;4255;48.730;9.156;2023-05-02T00:46:00;15.50;;;12.38;;
8435;SDS011;4255;48.730;9.156;2023-05-02T00:48:26;20.03;;;11.47;;
8435;SDS011;4255;48.730;9.156;2023-05-02T00:50:52;12.77;;;11.47;;
8435;SDS011;4255;48.730;9.156;2023-05-02T00:53:17;15.33;;;12.47;;
8435;SDS011;4255;48.730;9.156;2023-05-02T00:55:43;19.17;;;15.55;;
8435;SDS011;4255;48.730;9.156;2023-05-02T00:58:12;15.07;;;13.40;;
8435;SDS011;4255;48.730;9.156;2023-05-02T01:01:03;14.65;;;13.15;;
8435;SDS011;4255;48.730;9.156;2023-05-02T01:06:10;14.43;;;12.80;;
8435;SDS011;4255;48.730;9.156;2023-05-02T01:08:59;15.80;;;12.30;;
8435;SDS011;4255;48.730;9.156;2023-05-02T01:11:34;16.38;;;13.20;;
8435;SDS011;4255;48.730;9.156;2023-05-02T01:14:10;19.15;;;11.77;;
8435;SDS011;4255;48.730;9.156;2023-05-02T01:16:37;15.45;;;13.15;;
8435;SDS011;4255;48.730;9.156;2023-05-02T01:19:05;14.45;;;12.35;;
8435;SDS011;4255;48.730;9.156;2023-05-02T01:21:45;14.93;;;12.63;;
8435;SDS011;4255;48.730;9.156;2023-05-02T01:24:16;13.57;;;11.70;;
8435;SDS011;4255;48.730;9.156;2023-05-02T01:29:36;17.00;;;13.00;;
8435;SDS011;4255;48.730;9.156;2023-05-02T01:32:03;15.27;;;12.30;;
8435;SDS011;4255;48.730;9.156;2023-05-02T01:34:30;16.23;;;12.38;;
8435;SDS011;4255;48.730;9.156;2023-05-02T01:36:57;17.05;;;13.00;;
8435;SDS011;4255;48.730;9.156;2023-05-02T01:39:24;16.80;;;13.35;;
8435;SDS011;4255;48.730;9.156;2023-05-02T01:41:51;16.30;;;13.30;;
8435;SDS011;4255;48.730;9.156;2023-05-02T01:44:21;19.70;;;16.55;;
8435;SDS011;4255;48.730;9.156;2023-05-02T01:46:48;16.80;;;12.68;;
8435;SDS011;4255;48.730;9.156;2023-05-02T01:49:15;17.60;;;12.90;;
8435;SDS011;4255;48.730;9.156;2023-05-02T01:51:44;14.32;;;11.45;;
8435;SDS011;4255;48.730;9.156;2023-05-02T01:54:12;15.80;;;13.10;;
8435;SDS011;4255;48.730;9.156;2023-05-02T01:56:40;17.67;;;12.90;;
8435;SDS011;4255;48.730;9.156;2023-05-02T01:59:09;23.80;;;13.13;;
8435;SDS011;4255;48.730;9.156;2023-05-02T02:01:37;14.57;;;13.02;;
8435;SDS011;4255;48.730;9.156;2023-05-02T02:04:05;17.95;;;13.95;;
8435;SDS011;4255;48.730;9.156;2023-05-02T02:06:32;16.00;;;13.68;;
8435;SDS011;4255;48.730;9.156;2023-05-02T02:08:58;15.27;;;12.13;;
8435;SDS011;4255;48.730;9.156;2023-05-02T02:11:26;16.93;;;12.77;;
8435;SDS011;4255;48.730;9.156;2023-05-02T02:14:11;17.40;;;14.77;;
8435;SDS011;4255;48.730;9.156;2023-05-02T02:16:46;21.98;;;15.93;;
8435;SDS011;4255;48.730;9.156;2023-05-02T02:19:14;22.25;;;15.80;;
8435;SDS011;4255;48.730;9.156;2023-05-02T02:21:43;19.33;;;15.43;;
8435;SDS011;4255;48.730;9.156;2023-05-02T02:24:12;23.23;;;15.18;;
8435;SDS011;4255;48.730;9.156;2023-05-02T02:26:40;20.45;;;16.10;;
8435;SDS011;4255;48.730;9.156;2023-05-02T02:29:06;17.43;;;15.07;;
8435;SDS011;4255;48.730;9.156;2023-05-02T02:31:33;19.95;;;15.52;;
8435;SDS011;4255;48.730;9.156;2023-05-02T02:34:00;19.27;;;15.57;;
8435;SDS011;4255;48.730;9.156;2023-05-02T02:41:59;23.75;;;16.60;;
8435;SDS011;4255;48.730;9.156;2023-05-02T02:44:38;24.38;;;16.60;;
8435;SDS011;4255;48.730;9.156;2023-05-02T02:47:22;20.00;;;15.40;;
8435;SDS011;4255;48.730;9.156;2023-05-02T02:50:01;18.83;;;14.70;;
8435;SDS011;4255;48.730;9.156;2023-05-02T02:52:32;18.40;;;14.13;;
8435;SDS011;4255;48.730;9.156;2023-05-02T02:55:22;20.67;;;15.90;;
8435;SDS011;4255;48.730;9.156;2023-05-02T02:57:59;22.45;;;15.55;;
8435;SDS011;4255;48.730;9.156;2023-05-02T03:00:31;19.52;;;15.98;;
8435;SDS011;4255;48.730;9.156;2023-05-02T03:02:58;21.30;;;16.77;;
8435;SDS011;4255;48.730;9.156;2023-05-02T03:05:24;18.88;;;15.63;;
8435;SDS011;4255;48.730;9.156;2023-05-02T03:07:50;21.30;;;15.97;;
8435;SDS011;4255;48.730;9.156;2023-05-02T03:10:16;20.75;;;17.30;;
8435;SDS011;4255;48.730;9.156;2023-05-02T03:12:42;25.07;;;16.77;;
8435;SDS011;4255;48.730;9.156;2023-05-02T03:15:18;25.37;;;18.07;;
8435;SDS011;4255;48.730;9.156;2023-05-02T03:18:05;25.23;;;17.05;;
8435;SDS011;4255;48.730;9.156;2023-05-02T03:20:31;26.83;;;17.60;;
8435;SDS011;4255;48.730;9.156;2023-05-02T03:22:56;24.43;;;16.77;;
8435;SDS011;4255;48.730;9.156;2023-05-02T03:25:22;20.20;;;16.10;;
8435;SDS011;4255;48.730;9.156;2023-05-02T03:27:48;19.87;;;17.40;;
8435;SDS011;4255;48.730;9.156;2023-05-02T03:30:13;18.63;;;14.47;;
8435;SDS011;4255;48.730;9.156;2023-05-02T03:32:39;17.87;;;14.93;;
8435;SDS011;4255;48.730;9.156;2023-05-02T03:35:04;18.80;;;14.00;;
8435;SDS011;4255;48.730;9.156;2023-05-02T03:37:31;22.15;;;14.93;;
8435;SDS011;4255;48.730;9.156;2023-05-02T03:39:58;28.23;;;14.43;;
8435;SDS011;4255;48.730;9.156;2023-05-02T03:42:23;18.27;;;13.67;;
8435;SDS011;4255;48.730;9.156;2023-05-02T03:44:50;20.20;;;14.60;;
8435;SDS011;4255;48.730;9.156;2023-05-02T03:47:17;20.05;;;15.63;;
8435;SDS011;4255;48.730;9.156;2023-05-02T03:49:43;21.17;;;14.33;;
8435;SDS011;4255;48.730;9.156;2023-05-02T03:52:08;21.93;;;13.27;;
8435;SDS011;4255;48.730;9.156;2023-05-02T03:54:34;20.83;;;13.80;;
8435;SDS011;4255;48.730;9.156;2023-05-02T03:57:00;13.40;;;11.53;;
8435;SDS011;4255;48.730;9.156;2023-05-02T03:59:25;17.40;;;13.30;;
8435;SDS011;4255;48.730;9.156;2023-05-02T04:01:51;15.87;;;13.30;;
8435;SDS011;4255;48.730;9.156;2023-05-02T04:04:17;16.30;;;13.20;;
8435;SDS011;4255;48.730;9.156;2023-05-02T04:06:42;16.83;;;12.90;;
8435;SDS011;4255;48.730;9.156;2023-05-02T04:09:08;16.10;;;11.37;;
8435;SDS011;4255;48.730;9.156;2023-05-02T04:11:34;14.60;;;12.80;;
8435;SDS011;4255;48.730;9.156;2023-05-02T04:13:59;16.70;;;11.90;;
8435;SDS011;4255;48.730;9.156;2023-05-02T04:16:25;14.77;;;13.23;;
8435;SDS011;4255;48.730;9.156;2023-05-02T04:18:51;14.77;;;13.00;;
8435;SDS011;4255;48.730;9.156;2023-05-02T04:21:16;16.67;;;13.60;;
8435;SDS011;4255;48.730;9.156;2023-05-02T04:23:42;13.63;;;11.87;;
8435;SDS011;4255;48.730;9.156;2023-05-02T04:26:07;16.87;;;13.20;;
8435;SDS011;4255;48.730;9.156;2023-05-02T04:28:33;16.53;;;12.97;;
8435;SDS011;4255;48.730;9.156;2023-05-02T04:31:00;22.63;;;13.93;;
8435;SDS011;4255;48.730;9.156;2023-05-02T04:33:27;14.40;;;12.52;;
8435;SDS011;4255;48.730;9.156;2023-05-02T04:35:52;15.80;;;12.80;;
8435;SDS011;4255;48.730;9.156;2023-05-02T04:38:18;16.07;;;13.27;;
8435;SDS011;4255;48.730;9.156;2023-05-02T04:40:43;16.77;;;13.13;;
8435;SDS011;4255;48.730;9.156;2023-05-02T04:43:10;18.23;;;13.05;;
8435;SDS011;4255;48.730;9.156;2023-05-02T04:45:35;20.03;;;13.57;;
8435;SDS011;4255;48.730;9.156;2023-05-02T04:48:01;16.67;;;12.80;;
8435;SDS011;4255;48.730;9.156;2023-05-02T04:50:27;16.40;;;13.23;;
8435;SDS011;4255;48.730;9.156;2023-05-02T04:52:53;15.73;;;12.67;;
8435;SDS011;4255;48.730;9.156;2023-05-02T04:55:19;16.27;;;12.67;;
8435;SDS011;4255;48.730;9.156;2023-05-02T04:57:44;20.90;;;13.87;;
8435;SDS011;4255;48.730;9.156;2023-05-02T05:00:10;16.67;;;12.83;;
8435;SDS011;4255;48.730;9.156;2023-05-02T05:02:36;17.77;;;12.82;;
8435;SDS011;4255;48.730;9.156;2023-05-02T05:05:03;16.17;;;12.40;;
8435;SDS011;4255;48.730;9.156;2023-05-02T05:07:29;16.73;;;13.10;;
8435;SDS011;4255;48.730;9.156;2023-05-02T05:09:55;14.40;;;11.70;;
8435;SDS011;4255;48.730;9.156;2023-05-02T05:12:20;16.00;;;13.10;;
8435;SDS011;4255;48.730;9.156;2023-05-02T05:14:46;20.20;;;12.60;;
8435;SDS011;4255;48.730;9.156;2023-05-02T05:17:12;16.07;;;13.37;;
8435;SDS011;4255;48.730;9.156;2023-05-02T05:19:38;13.57;;;12.15;;
8435;SDS011;4255;48.730;9.156;2023-05-02T05:22:03;16.47;;;13.73;;
8435;SDS011;4255;48.730;9.156;2023-05-02T05:24:29;15.07;;;12.80;;
8435;SDS011;4255;48.730;9.156;2023-05-02T05:26:54;15.40;;;13.80;;
8435;SDS011;4255;48.730;9.156;2023-05-02T05:29:20;15.10;;;13.23;;
8435;SDS011;4255;48.730;9.156;2023-05-02T05:31:46;16.50;;;13.57;;
8435;SDS011;4255;48.730;9.156;2023-05-02T05:34:12;13.80;;;11.27;;
8435;SDS011;4255;48.730;9.156;2023-05-02T05:36:41;15.45;;;12.23;;
8435;SDS011;4255;48.730;9.156;2023-05-02T05:39:07;13.05;;;11.65;;
8435;SDS011;4255;48.730;9.156;2023-05-02T05:41:32;13.63;;;12.10;;
8435;SDS011;4255;48.730;9.156;2023-05-02T05:43:59;18.23;;;12.13;;
8435;SDS011;4255;48.730;9.156;2023-05-02T05:46:25;15.17;;;11.87;;
8435;SDS011;4255;48.730;9.156;2023-05-02T05:48:50;16.40;;;13.50;;
8435;SDS011;4255;48.730;9.156;2023-05-02T05:51:16;15.53;;;12.30;;
8435;SDS011;4255;48.730;9.156;2023-05-02T05:53:42;20.97;;;15.20;;
8435;SDS011;4255;48.730;9.156;2023-05-02T05:56:11;14.00;;;11.97;;
8435;SDS011;4255;48.730;9.156;2023-05-02T05:58:38;13.43;;;11.65;;
8435;SDS011;4255;48.730;9.156;2023-05-02T06:01:04;17.17;;;13.25;;
8435;SDS011;4255;48.730;9.156;2023-05-02T06:03:30;14.48;;;12.90;;
8435;SDS011;4255;48.730;9.156;2023-05-02T06:05:56;14.70;;;12.63;;
8435;SDS011;4255;48.730;9.156;2023-05-02T06:08:21;15.30;;;12.73;;
8435;SDS011;4255;48.730;9.156;2023-05-02T06:10:47;17.13;;;14.17;;
8435;SDS011;4255;48.730;9.156;2023-05-02T06:13:12;17.63;;;13.73;;
8435;SDS011;4255;48.730;9.156;2023-05-02T06:15:38;18.57;;;13.00;;
8435;SDS011;4255;48.730;9.156;2023-05-02T06:18:04;19.80;;;13.80;;
8435;SDS011;4255;48.730;9.156;2023-05-02T06:20:29;18.00;;;13.93;;
8435;SDS011;4255;48.730;9.156;2023-05-02T06:22:55;20.13;;;15.93;;
8435;SDS011;4255;48.730;9.156;2023-05-02T06:25:21;20.33;;;15.73;;
8435;SDS011;4255;48.730;9.156;2023-05-02T06:27:46;19.20;;;15.63;;
8435;SDS011;4255;48.730;9.156;2023-05-02T06:30:12;19.70;;;16.70;;
8435;SDS011;4255;48.730;9.156;2023-05-02T06:32:37;23.23;;;16.37;;
8435;SDS011;4255;48.730;9.156;2023-05-02T06:35:03;17.37;;;14.50;;
8435;SDS011;4255;48.730;9.156;2023-05-02T06:37:32;23.63;;;16.40;;
8435;SDS011;4255;48.730;9.156;2023-05-02T06:39:59;20.80;;;16.90;;
8435;SDS011;4255;48.730;9.156;2023-05-02T06:42:25;24.70;;;16.70;;
8435;SDS011;4255;48.730;9.156;2023-05-02T06:44:51;22.77;;;16.90;;
8435;SDS011;4255;48.730;9.156;2023-05-02T06:47:16;26.50;;;17.03;;
8435;SDS011;4255;48.730;9.156;2023-05-02T06:49:42;20.50;;;16.57;;
8435;SDS011;4255;48.730;9.156;2023-05-02T06:52:07;20.40;;;16.30;;
8435;SDS011;4255;48.730;9.156;2023-05-02T06:54:33;25.60;;;17.70;;
8435;SDS011;4255;48.730;9.156;2023-05-02T06:56:59;23.20;;;19.07;;
8435;SDS011;4255;48.730;9.156;2023-05-02T06:59:26;23.02;;;17.80;;
8435;SDS011;4255;48.730;9.156;2023-05-02T07:01:51;21.90;;;17.50;;
8435;SDS011;4255;48.730;9.156;2023-05-02T07:04:17;24.43;;;18.40;;
8435;SDS011;4255;48.730;9.156;2023-05-02T07:06:43;24.53;;;19.30;;
8435;SDS011;4255;48.730;9.156;2023-05-02T07:09:09;25.20;;;19.27;;
8435;SDS011;4255;48.730;9.156;2023-05-02T07:11:35;27.63;;;20.13;;
8435;SDS011;4255;48.730;9.156;2023-05-02T07:14:01;26.23;;;20.17;;
8435;SDS011;4255;48.730;9.156;2023-05-02T07:16:27;28.10;;;21.00;;
8435;SDS011;4255;48.730;9.156;2023-05-02T07:18:52;25.70;;;19.90;;
8435;SDS011;4255;48.730;9.156;2023-05-02T07:21:18;25.37;;;20.10;;
8435;SDS011;4255;48.730;9.156;2023-05-02T07:23:43;30.07;;;21.60;;
8435;SDS011;4255;48.730;9.156;2023-05-02T07:26:09;29.40;;;22.33;;
8435;SDS011;4255;48.730;9.156;2023-05-02T07:28:35;37.33;;;24.40;;
8435;SDS011;4255;48.730;9.156;2023-05-02T07:31:00;33.47;;;22.27;;
8435;SDS011;4255;48.730;9.156;2023-05-02T07:33:26;32.80;;;24.90;;
8435;SDS011;4255;48.730;9.156;2023-05-02T07:35:52;30.70;;;23.53;;
8435;SDS011;4255;48.730;9.156;2023-05-02T07:38:19;28.80;;;22.40;;
8435;SDS011;4255;48.730;9.156;2023-05-02T07:40:45;30.00;;;20.60;;
8435;SDS011;4255;48.730;9.156;2023-05-02T07:43:11;29.33;;;21.87;;
8435;SDS011;4255;48.730;9.156;2023-05-02T07:45:37;30.02;;;23.60;;
8435;SDS011;4255;48.730;9.156;2023-05-02T07:48:02;29.60;;;21.40;;
8435;SDS011;4255;48.730;9.156;2023-05-02T07:50:28;27.70;;;22.90;;
8435;SDS011;4255;48.730;9.156;2023-05-02T07:52:54;31.40;;;23.37;;
8435;SDS011;4255;48.730;9.156;2023-05-02T07:55:20;28.93;;;22.20;;
8435;SDS011;4255;48.730;9.156;2023-05-02T07:57:46;31.80;;;23.17;;
8435;SDS011;4255;48.730;9.156;2023-05-02T08:00:12;30.67;;;23.33;;
8435;SDS011;4255;48.730;9.156;2023-05-02T08:02:40;32.33;;;22.57;;
8435;SDS011;4255;48.730;9.156;2023-05-02T08:05:06;29.20;;;22.37;;
8435;SDS011;4255;48.730;9.156;2023-05-02T08:07:32;33.63;;;24.10;;
8435;SDS011;4255;48.730;9.156;2023-05-02T08:09:59;31.57;;;22.27;;
8435;SDS011;4255;48.730;9.156;2023-05-02T08:12:25;34.40;;;24.97;;
8435;SDS011;4255;48.730;9.156;2023-05-02T08:14:50;29.53;;;23.23;;
8435;SDS011;4255;48.730;9.156;2023-05-02T08:17:16;31.53;;;24.37;;
8435;SDS011;4255;48.730;9.156;2023-05-02T08:19:42;32.00;;;23.50;;
8435;SDS011;4255;48.730;9.156;2023-05-02T08:22:07;33.50;;;23.50;;
8435;SDS011;4255;48.730;9.156;2023-05-02T08:24:33;33.27;;;25.40;;
8435;SDS011;4255;48.730;9.156;2023-05-02T08:26:58;33.90;;;25.90;;
8435;SDS011;4255;48.730;9.156;2023-05-02T08:29:24;33.87;;;24.03;;
8435;SDS011;4255;48.730;9.156;2023-05-02T08:31:50;35.53;;;26.30;;
8435;SDS011;4255;48.730;9.156;2023-05-02T08:34:15;39.70;;;29.57;;
8435;SDS011;4255;48.730;9.156;2023-05-02T08:36:41;36.20;;;28.57;;
8435;SDS011;4255;48.730;9.156;2023-05-02T08:39:06;38.17;;;26.50;;
8435;SDS011;4255;48.730;9.156;2023-05-02T08:41:33;39.87;;;29.03;;
8435;SDS011;4255;48.730;9.156;2023-05-02T08:43:59;37.10;;;26.93;;
8435;SDS011;4255;48.730;9.156;2023-05-02T08:46:26;37.70;;;26.60;;
8435;SDS011;4255;48.730;9.156;2023-05-02T08:48:53;35.70;;;26.00;;
8435;SDS011;4255;48.730;9.156;2023-05-02T08:51:23;35.07;;;27.60;;
8435;SDS011;4255;48.730;9.156;2023-05-02T08:53:48;35.93;;;27.40;;
8435;SDS011;4255;48.730;9.156;2023-05-02T08:56:16;36.07;;;26.03;;
8435;SDS011;4255;48.730;9.156;2023-05-02T08:58:41;32.17;;;24.97;;
8435;SDS011;4255;48.730;9.156;2023-05-02T09:01:27;32.93;;;25.03;;
8435;SDS011;4255;48.730;9.156;2023-05-02T09:03:54;33.53;;;24.37;;
8435;SDS011;4255;48.730;9.156;2023-05-02T09:06:22;31.50;;;23.80;;
8435;SDS011;4255;48.730;9.156;2023-05-02T09:08:49;32.80;;;23.80;;
8435;SDS011;4255;48.730;9.156;2023-05-02T09:11:16;29.73;;;22.83;;
8435;SDS011;4255;48.730;9.156;2023-05-02T09:13:43;29.77;;;22.37;;
8435;SDS011;4255;48.730;9.156;2023-05-02T09:16:17;31.03;;;22.97;;
8435;SDS011;4255;48.730;9.156;2023-05-02T09:18:50;25.20;;;20.07;;
8435;SDS011;4255;48.730;9.156;2023-05-02T09:21:23;28.23;;;21.27;;
8435;SDS011;4255;48.730;9.156;2023-05-02T09:23:54;28.77;;;21.77;;
8435;SDS011;4255;48.730;9.156;2023-05-02T09:26:22;25.00;;;19.23;;
8435;SDS011;4255;48.730;9.156;2023-05-02T09:28:53;23.47;;;19.63;;
8435;SDS011;4255;48.730;9.156;2023-05-02T09:31:22;25.00;;;20.60;;
8435;SDS011;4255;48.730;9.156;2023-05-02T09:33:54;26.77;;;20.70;;
8435;SDS011;4255;48.730;9.156;2023-05-02T09:36:20;27.00;;;21.17;;
8435;SDS011;4255;48.730;9.156;2023-05-02T09:38:47;29.87;;;21.10;;
8435;SDS011;4255;48.730;9.156;2023-05-02T09:41:13;23.00;;;19.60;;
8435;SDS011;4255;48.730;9.156;2023-05-02T09:43:41;27.83;;;20.90;;
8435;SDS011;4255;48.730;9.156;2023-05-02T09:46:08;27.70;;;21.17;;
8435;SDS011;4255;48.730;9.156;2023-05-02T09:51:20;24.60;;;19.50;;
8435;SDS011;4255;48.730;9.156;2023-05-02T09:53:47;26.53;;;19.20;;
8435;SDS011;4255;48.730;9.156;2023-05-02T09:56:13;26.13;;;19.70;;
8435;SDS011;4255;48.730;9.156;2023-05-02T09:58:39;25.33;;;19.80;;
8435;SDS011;4255;48.730;9.156;2023-05-02T10:01:05;26.17;;;20.43;;
8435;SDS011;4255;48.730;9.156;2023-05-02T10:03:31;24.87;;;20.33;;
8435;SDS011;4255;48.730;9.156;2023-05-02T10:06:01;25.37;;;21.40;;
8435;SDS011;4255;48.730;9.156;2023-05-02T10:08:27;25.93;;;20.43;;
8435;SDS011;4255;48.730;9.156;2023-05-02T10:10:54;29.03;;;20.93;;
8435;SDS011;4255;48.730;9.156;2023-05-02T10:13:22;25.57;;;20.60;;
8435;SDS011;4255;48.730;9.156;2023-05-02T10:15:59;22.60;;;19.80;;
8435;SDS011;4255;48.730;9.156;2023-05-02T10:18:27;25.50;;;20.10;;
8435;SDS011;4255;48.730;9.156;2023-05-02T10:21:11;26.33;;;21.03;;
8435;SDS011;4255;48.730;9.156;2023-05-02T10:23:41;25.67;;;21.27;;
8435;SDS011;4255;48.730;9.156;2023-05-02T10:26:08;26.47;;;20.87;;
8435;SDS011;4255;48.730;9.156;2023-05-02T10:28:37;25.77;;;21.20;;
8435;SDS011;4255;48.730;9.156;2023-05-02T10:31:03;26.70;;;22.07;;
8435;SDS011;4255;48.730;9.156;2023-05-02T10:33:30;27.27;;;21.47;;
8435;SDS011;4255;48.730;9.156;2023-05-02T10:35:59;25.20;;;21.83;;
8435;SDS011;4255;48.730;9.156;2023-05-02T10:38:25;23.73;;;19.73;;
8435;SDS011;4255;48.730;9.156;2023-05-02T10:40:55;26.07;;;20.97;;
8435;SDS011;4255;48.730;9.156;2023-05-02T10:43:26;25.17;;;18.90;;
8435;SDS011;4255;48.730;9.156;2023-05-02T10:45:58;21.23;;;18.20;;
8435;SDS011;4255;48.730;9.156;2023-05-02T10:48:24;24.23;;;18.93;;
8435;SDS011;4255;48.730;9.156;2023-05-02T10:53:30;23.37;;;19.40;;
8435;SDS011;4255;48.730;9.156;2023-05-02T10:58:45;17.40;;;15.60;;
8435;SDS011;4255;48.730;9.156;2023-05-02T11:06:34;21.40;;;17.43;;
8435;SDS011;4255;48.730;9.156;2023-05-02T11:11:45;22.60;;;16.37;;
8435;SDS011;4255;48.730;9.156;2023-05-02T11:14:59;15.57;;;13.97;;
8435;SDS011;4255;48.730;9.156;2023-05-02T11:17:06;17.93;;;15.10;;
8435;SDS011;4255;48.730;9.156;2023-05-02T11:24:43;19.50;;;17.10;;
8435;SDS011;4255;48.730;9.156;2023-05-02T11:30:05;22.13;;;16.30;;
8435;SDS011;4255;48.730;9.156;2023-05-02T11:35:22;23.10;;;17.13;;
8435;SDS011;4255;48.730;9.156;2023-05-02T11:37:55;21.47;;;15.83;;
8435;SDS011;4255;48.730;9.156;2023-05-02T11:40:22;19.23;;;15.77;;
8435;SDS011;4255;48.730;9.156;2023-05-02T11:42:49;19.63;;;16.50;;
8435;SDS011;4255;48.730;9.156;2023-05-02T11:45:15;20.30;;;15.90;;
8435;SDS011;4255;48.730;9.156;2023-05-02T11:47:41;18.43;;;15.27;;
8435;SDS011;4255;48.730;9.156;2023-05-02T11:50:08;17.00;;;15.07;;
8435;SDS011;4255;48.730;9.156;2023-05-02T11:52:37;22.43;;;16.00;;
8435;SDS011;4255;48.730;9.156;2023-05-02T11:55:04;16.37;;;14.60;;
8435;SDS011;4255;48.730;9.156;2023-05-02T11:57:34;18.47;;;16.50;;
8435;SDS011;4255;48.730;9.156;2023-05-02T12:00:00;21.53;;;16.50;;
8435;SDS011;4255;48.730;9.156;2023-05-02T12:02:38;24.87;;;17.13;;
8435;SDS011;4255;48.730;9.156;2023-05-02T12:05:06;19.07;;;17.07;;
8435;SDS011;4255;48.730;9.156;2023-05-02T12:07:37;19.70;;;16.50;;
8435;SDS011;4255;48.730;9.156;2023-05-02T12:10:08;22.53;;;18.67;;
8435;SDS011;4255;48.730;9.156;2023-05-02T12:12:36;25.50;;;20.40;;
8435;SDS011;4255;48.730;9.156;2023-05-02T12:15:03;21.90;;;18.10;;
8435;SDS011;4255;48.730;9.156;2023-05-02T12:17:30;29.23;;;20.27;;
8435;SDS011;4255;48.730;9.156;2023-05-02T12:19:57;27.87;;;22.20;;
8435;SDS011;4255;48.730;9.156;2023-05-02T12:22:23;26.03;;;20.37;;
8435;SDS011;4255;48.730;9.156;2023-05-02T12:24:50;24.23;;;19.23;;
8435;SDS011;4255;48.730;9.156;2023-05-02T12:27:17;25.43;;;19.27;;
8435;SDS011;4255;48.730;9.156;2023-05-02T12:29:44;28.00;;;21.13;;
8435;SDS011;4255;48.730;9.156;2023-05-02T12:32:11;26.37;;;20.50;;
8435;SDS011;4255;48.730;9.156;2023-05-02T12:34:38;23.17;;;18.23;;
8435;SDS011;4255;48.730;9.156;2023-05-02T12:37:04;31.23;;;20.30;;
8435;SDS011;4255;48.730;9.156;2023-05-02T12:41:59;27.60;;;20.00;;
8435;SDS011;4255;48.730;9.156;2023-05-02T12:44:37;26.40;;;21.47;;
8435;SDS011;4255;48.730;9.156;2023-05-02T12:47:03;26.93;;;19.70;;
8435;SDS011;4255;48.730;9.156;2023-05-02T12:49:29;31.80;;;21.70;;
8435;SDS011;4255;48.730;9.156;2023-05-02T12:51:55;25.93;;;19.00;;
8435;SDS011;4255;48.730;9.156;2023-05-02T12:54:21;27.93;;;20.73;;
8435;SDS011;4255;48.730;9.156;2023-05-02T12:56:47;24.77;;;20.17;;
8435;SDS011;4255;48.730;9.156;2023-05-02T12:59:29;24.43;;;18.90;;
8435;SDS011;4255;48.730;9.156;2023-05-02T13:01:55;22.57;;;17.40;;
8435;SDS011;4255;48.730;9.156;2023-05-02T13:04:37;22.60;;;17.80;;
8435;SDS011;4255;48.730;9.156;2023-05-02T13:07:05;28.63;;;19.63;;
8435;SDS011;4255;48.730;9.156;2023-05-02T13:09:31;22.73;;;19.40;;
8435;SDS011;4255;48.730;9.156;2023-05-02T13:11:57;24.53;;;18.73;;
8435;SDS011;4255;48.730;9.156;2023-05-02T13:14:27;22.00;;;17.73;;
8435;SDS011;4255;48.730;9.156;2023-05-02T13:16:53;20.90;;;17.50;;
8435;SDS011;4255;48.730;9.156;2023-05-02T13:19:19;22.80;;;18.50;;
8435;SDS011;4255;48.730;9.156;2023-05-02T13:21:47;27.23;;;20.97;;
8435;SDS011;4255;48.730;9.156;2023-05-02T13:24:13;29.40;;;21.13;;
8435;SDS011;4255;48.730;9.156;2023-05-02T13:26:39;26.93;;;20.20;;
8435;SDS011;4255;48.730;9.156;2023-05-02T13:29:08;25.27;;;18.07;;
8435;SDS011;4255;48.730;9.156;2023-05-02T13:31:35;23.77;;;18.37;;
8435;SDS011;4255;48.730;9.156;2023-05-02T13:34:02;28.93;;;19.47;;
8435;SDS011;4255;48.730;9.156;2023-05-02T13:36:28;29.07;;;21.20;;
8435;SDS011;4255;48.730;9.156;2023-05-02T13:38:54;25.63;;;17.53;;
8435;SDS011;4255;48.730;9.156;2023-05-02T13:41:20;26.50;;;18.13;;
8435;SDS011;4255;48.730;9.156;2023-05-02T13:43:45;21.80;;;15.50;;
8435;SDS011;4255;48.730;9.156;2023-05-02T13:46:11;24.87;;;17.93;;
8435;SDS011;4255;48.730;9.156;2023-05-02T13:48:36;26.00;;;18.90;;
8435;SDS011;4255;48.730;9.156;2023-05-02T13:51:02;24.40;;;16.90;;
8435;SDS011;4255;48.730;9.156;2023-05-02T13:53:28;23.10;;;17.50;;
8435;SDS011;4255;48.730;9.156;2023-05-02T13:55:53;23.47;;;16.77;;
8435;SDS011;4255;48.730;9.156;2023-05-02T13:58:19;21.83;;;16.37;;
8435;SDS011;4255;48.730;9.156;2023-05-02T14:00:45;21.30;;;15.63;;
8435;SDS011;4255;48.730;9.156;2023-05-02T14:03:11;22.17;;;16.30;;
8435;SDS011;4255;48.730;9.156;2023-05-02T14:05:37;21.20;;;16.20;;
8435;SDS011;4255;48.730;9.156;2023-05-02T14:08:07;21.70;;;15.23;;
8435;SDS011;4255;48.730;9.156;2023-05-02T14:10:33;22.40;;;15.57;;
8435;SDS011;4255;48.730;9.156;2023-05-02T14:13:01;21.67;;;16.10;;
8435;SDS011;4255;48.730;9.156;2023-05-02T14:15:27;23.93;;;16.40;;
8435;SDS011;4255;48.730;9.156;2023-05-02T14:17:53;18.63;;;15.20;;
8435;SDS011;4255;48.730;9.156;2023-05-02T14:20:19;18.93;;;15.20;;
8435;SDS011;4255;48.730;9.156;2023-05-02T14:22:45;22.00;;;15.33;;
8435;SDS011;4255;48.730;9.156;2023-05-02T14:25:11;18.13;;;14.50;;
8435;SDS011;4255;48.730;9.156;2023-05-02T14:27:38;17.30;;;13.13;;
8435;SDS011;4255;48.730;9.156;2023-05-02T14:30:03;12.53;;;11.07;;
8435;SDS011;4255;48.730;9.156;2023-05-02T14:32:29;13.10;;;10.10;;
8435;SDS011;4255;48.730;9.156;2023-05-02T14:34:55;15.33;;;10.80;;
8435;SDS011;4255;48.730;9.156;2023-05-02T14:37:20;17.73;;;13.33;;
8435;SDS011;4255;48.730;9.156;2023-05-02T14:39:46;16.90;;;12.93;;
8435;SDS011;4255;48.730;9.156;2023-05-02T14:42:13;18.27;;;13.10;;
8435;SDS011;4255;48.730;9.156;2023-05-02T14:44:39;19.60;;;14.33;;
8435;SDS011;4255;48.730;9.156;2023-05-02T14:47:06;15.27;;;12.53;;
8435;SDS011;4255;48.730;9.156;2023-05-02T14:49:31;16.03;;;12.50;;
8435;SDS011;4255;48.730;9.156;2023-05-02T14:51:57;12.30;;;10.23;;
8435;SDS011;4255;48.730;9.156;2023-05-02T14:54:26;13.40;;;8.80;;
8435;SDS011;4255;48.730;9.156;2023-05-02T14:56:53;14.70;;;9.80;;
8435;SDS011;4255;48.730;9.156;2023-05-02T14:59:19;14.03;;;11.50;;
8435;SDS011;4255;48.730;9.156;2023-05-02T15:01:45;16.30;;;12.00;;
8435;SDS011;4255;48.730;9.156;2023-05-02T15:04:10;14.37;;;12.13;;
8435;SDS011;4255;48.730;9.156;2023-05-02T15:06:36;20.70;;;10.27;;
8435;SDS011;4255;48.730;9.156;2023-05-02T15:09:02;14.53;;;10.53;;
8435;SDS011;4255;48.730;9.156;2023-05-02T15:11:28;13.73;;;10.00;;
8435;SDS011;4255;48.730;9.156;2023-05-02T15:13:54;14.17;;;10.90;;
8435;SDS011;4255;48.730;9.156;2023-05-02T15:16:20;17.40;;;9.97;;
8435;SDS011;4255;48.730;9.156;2023-05-02T15:18:46;15.00;;;10.27;;
8435;SDS011;4255;48.730;9.156;2023-05-02T15:21:11;16.10;;;10.87;;
8435;SDS011;4255;48.730;9.156;2023-05-02T15:23:37;16.07;;;11.27;;
8435;SDS011;4255;48.730;9.156;2023-05-02T15:26:02;14.40;;;11.33;;
8435;SDS011;4255;48.730;9.156;2023-05-02T15:28:28;14.00;;;11.13;;
8435;SDS011;4255;48.730;9.156;2023-05-02T15:30:55;17.57;;;10.60;;